Terminal Aerodrome Forecast
Issued by NWS Charleston, WV

Current Version | Previous Version | Text Only | Print | Product List | Glossary Off
Versions: 1 2 3 4 5 6 7 8 9 10 11 12 13 14 15 16 17 18 19 20 21 22 23 24 25 26

990
FTUS41 KRLX 191739
TAFEKN
TAF
KEKN 191739Z 1918/2018 22006G14KT 5SM SHRA SCT008 OVC015
     FM192000 28010G17KT P6SM OVC020
     FM192300 25006KT P6SM VCSH SCT030 BKN040
     FM200600 23002KT P6SM BKN050
     FM200800 00000KT 3SM BR SCT050
     FM200900 00000KT 1/2SM FG BKN001
     FM201230 VRB02KT 3SM BR SCT002
     FM201300 27004KT P6SM SCT040
     FM201700 28009KT P6SM SCT045=

USA.gov is the U.S. government's official web portal to all federal, state and local government web resources and services.